createdAt,value
2018-11-06T00:00:46.419Z,7.06
2018-11-06T00:03:20.107Z,6.97
2018-11-06T00:05:48.564Z,6.93
2018-11-06T00:08:17.033Z,6.97
2018-11-06T00:10:45.475Z,7.05
2018-11-06T00:13:13.909Z,7.05
2018-11-06T00:15:42.366Z,7.07
2018-11-06T00:18:10.797Z,7.04
2018-11-06T00:20:39.242Z,6.90
2018-11-06T00:23:07.666Z,6.81
2018-11-06T00:25:36.104Z,6.75
2018-11-06T00:28:04.879Z,6.69
2018-11-06T00:30:33.341Z,6.60
2018-11-06T00:33:01.769Z,6.42
2018-11-06T00:35:30.232Z,6.26
2018-11-06T00:37:58.649Z,6.06
2018-11-06T00:40:27.091Z,6.00
2018-11-06T00:42:55.533Z,6.00
2018-11-06T00:45:23.977Z,5.96
2018-11-06T00:47:52.397Z,5.91
2018-11-06T00:50:20.802Z,5.80
2018-11-06T00:52:49.261Z,5.69
2018-11-06T00:55:17.668Z,5.58
2018-11-06T00:57:46.097Z,5.55
2018-11-06T01:00:16.006Z,5.51
2018-11-06T01:02:44.500Z,5.50
2018-11-06T01:05:13.747Z,5.60
2018-11-06T01:07:43.542Z,5.78
2018-11-06T01:10:12.272Z,5.85
2018-11-06T01:12:41.094Z,5.83
2018-11-06T01:15:11.812Z,5.85
2018-11-06T01:17:40.745Z,5.83
2018-11-06T01:20:11.370Z,5.62
2018-11-06T01:22:39.865Z,5.49
2018-11-06T01:25:08.978Z,5.38
2018-11-06T01:27:37.503Z,5.38
2018-11-06T01:30:09.159Z,5.50
2018-11-06T01:32:37.692Z,5.45
2018-11-06T01:35:07.068Z,5.36
2018-11-06T01:37:35.527Z,5.43
2018-11-06T01:40:04.145Z,5.47
2018-11-06T01:42:32.597Z,5.51
2018-11-06T01:45:01.029Z,5.61
2018-11-06T01:47:29.473Z,5.55
2018-11-06T01:49:57.892Z,5.50
2018-11-06T01:52:26.348Z,5.47
2018-11-06T01:54:54.737Z,5.36
2018-11-06T01:57:23.192Z,5.23
2018-11-06T01:59:52.708Z,5.21
2018-11-06T02:02:21.196Z,5.17
2018-11-06T02:04:49.601Z,5.17
2018-11-06T02:07:18.054Z,5.03
2018-11-06T02:09:46.465Z,4.97
2018-11-06T02:12:14.912Z,4.93
2018-11-06T02:14:43.351Z,4.97
2018-11-06T02:17:11.796Z,5.02
2018-11-06T02:19:40.255Z,5.06
2018-11-06T02:22:08.692Z,5.04
2018-11-06T02:24:37.104Z,4.97
2018-11-06T02:27:05.776Z,4.98
2018-11-06T02:29:34.187Z,5.01
2018-11-06T02:32:02.643Z,4.97
2018-11-06T02:34:31.059Z,4.91
2018-11-06T02:36:59.507Z,4.76
2018-11-06T02:39:27.907Z,4.81
2018-11-06T02:41:56.363Z,4.63
2018-11-06T02:44:25.007Z,4.46
2018-11-06T02:46:53.484Z,4.35
2018-11-06T02:49:21.925Z,4.23
2018-11-06T02:51:50.380Z,4.20
2018-11-06T02:54:18.805Z,4.18
2018-11-06T02:56:47.251Z,4.11
2018-11-06T02:59:15.713Z,4.11
2018-11-06T03:01:44.189Z,4.20
2018-11-06T03:04:12.666Z,4.27
2018-11-06T03:06:41.124Z,4.31
2018-11-06T03:09:09.683Z,4.30
2018-11-06T03:11:38.256Z,4.37
2018-11-06T03:14:06.694Z,4.45
2018-11-06T03:16:35.168Z,4.45
2018-11-06T03:19:03.587Z,4.27
2018-11-06T03:21:32.035Z,4.10
2018-11-06T03:24:00.470Z,4.01
2018-11-06T03:26:28.883Z,4.09
2018-11-06T03:28:57.333Z,3.94
2018-11-06T03:31:26.615Z,3.88
2018-11-06T03:33:55.065Z,3.77
2018-11-06T03:36:23.717Z,3.70
2018-11-06T03:38:52.174Z,3.71
2018-11-06T03:41:20.585Z,3.93
2018-11-06T03:43:49.096Z,4.05
2018-11-06T03:46:17.505Z,4.13
2018-11-06T03:48:45.956Z,4.20
2018-11-06T03:51:14.356Z,4.15
2018-11-06T03:53:42.800Z,4.14
2018-11-06T03:56:11.224Z,4.04
2018-11-06T03:58:39.677Z,3.89
2018-11-06T04:01:08.327Z,3.84
2018-11-06T04:03:36.822Z,3.86
2018-11-06T04:06:05.418Z,3.77
2018-11-06T04:08:33.881Z,3.72
2018-11-06T04:11:02.305Z,3.77
2018-11-06T04:13:30.772Z,3.83
2018-11-06T04:15:59.230Z,3.80
2018-11-06T04:18:27.672Z,3.77
2018-11-06T04:20:56.075Z,3.86
2018-11-06T04:23:24.539Z,3.92
2018-11-06T04:25:52.981Z,4.01
2018-11-06T04:28:21.424Z,3.97
2018-11-06T04:30:49.828Z,3.87
2018-11-06T04:33:18.278Z,3.72
2018-11-06T04:35:46.705Z,3.67
2018-11-06T04:38:15.145Z,3.66
2018-11-06T04:40:43.579Z,3.61
2018-11-06T04:43:12.042Z,3.62
2018-11-06T04:45:40.460Z,3.68
2018-11-06T04:48:08.928Z,3.67
2018-11-06T04:50:37.345Z,3.63
2018-11-06T04:53:05.853Z,3.63
2018-11-06T04:55:34.301Z,3.63
2018-11-06T04:58:02.730Z,3.84
2018-11-06T05:00:31.230Z,4.04
2018-11-06T05:02:59.675Z,4.04
2018-11-06T05:05:28.134Z,4.11
2018-11-06T05:07:56.573Z,4.19
2018-11-06T05:10:25.015Z,4.13
2018-11-06T05:12:53.447Z,4.10
2018-11-06T05:15:21.901Z,4.32
2018-11-06T05:17:50.336Z,4.60
2018-11-06T05:20:18.833Z,4.99
2018-11-06T05:22:47.727Z,5.19
2018-11-06T05:25:16.365Z,5.24
2018-11-06T05:27:44.793Z,5.20
2018-11-06T05:30:13.445Z,5.13
2018-11-06T05:32:43.297Z,5.40
2018-11-06T05:35:12.188Z,5.49
2018-11-06T05:37:41.082Z,5.51
2018-11-06T05:40:20.864Z,5.43
2018-11-06T05:42:49.289Z,5.38
2018-11-06T05:45:17.786Z,5.35
2018-11-06T05:47:46.187Z,5.32
2018-11-06T05:50:14.629Z,5.30
2018-11-06T05:52:43.039Z,5.26
2018-11-06T05:55:11.585Z,5.19
2018-11-06T05:57:40.003Z,5.22
2018-11-06T06:00:09.409Z,5.32
2018-11-06T06:02:37.849Z,5.31
2018-11-06T06:05:07.333Z,5.34
2018-11-06T06:07:35.790Z,5.36
2018-11-06T06:10:04.380Z,5.40
2018-11-06T06:12:32.808Z,5.41
2018-11-06T06:15:01.339Z,5.40
2018-11-06T06:17:29.770Z,5.42
2018-11-06T06:19:58.220Z,5.42
2018-11-06T06:22:26.688Z,5.52
2018-11-06T06:24:55.101Z,5.56
2018-11-06T06:27:23.507Z,5.59
2018-11-06T06:29:51.968Z,5.62
2018-11-06T06:32:20.389Z,5.63
2018-11-06T06:34:48.863Z,5.53
2018-11-06T06:37:17.279Z,5.38
2018-11-06T06:39:45.716Z,5.06
2018-11-06T06:42:14.116Z,4.94
2018-11-06T06:44:42.581Z,4.80
2018-11-06T06:47:11.001Z,4.66
2018-11-06T06:49:39.434Z,4.70
2018-11-06T06:52:07.862Z,4.79
2018-11-06T06:54:36.444Z,4.68
2018-11-06T06:57:04.853Z,4.60
2018-11-06T06:59:33.304Z,4.80
2018-11-06T07:02:01.763Z,5.07
2018-11-06T07:04:30.180Z,5.23
2018-11-06T07:06:58.619Z,5.21
2018-11-06T07:09:27.048Z,5.21
2018-11-06T07:11:55.481Z,5.31
2018-11-06T07:14:23.905Z,5.50
2018-11-06T07:16:52.345Z,5.63
2018-11-06T07:19:20.757Z,5.53
2018-11-06T07:21:49.193Z,5.51
2018-11-06T07:24:17.602Z,5.61
2018-11-06T07:26:46.029Z,5.67
2018-11-06T07:29:14.462Z,5.48
2018-11-06T07:31:42.916Z,5.36
2018-11-06T07:34:11.336Z,5.29
2018-11-06T07:36:39.760Z,5.35
2018-11-06T07:39:10.825Z,5.64
2018-11-06T07:41:40.055Z,5.79
2018-11-06T07:44:09.664Z,6.01
2018-11-06T07:46:38.121Z,6.15
2018-11-06T07:49:06.822Z,6.27
2018-11-06T07:51:35.487Z,6.37
2018-11-06T07:54:03.913Z,6.54
2018-11-06T07:56:32.370Z,6.70
2018-11-06T07:59:00.810Z,6.90
2018-11-06T08:01:29.279Z,7.11
2018-11-06T08:03:57.714Z,7.23
2018-11-06T08:06:26.192Z,7.38
2018-11-06T08:08:54.632Z,7.55
2018-11-06T08:11:23.085Z,7.66
2018-11-06T08:13:51.503Z,7.73
2018-11-06T08:16:19.920Z,7.86
2018-11-06T08:18:48.350Z,7.93
2018-11-06T08:21:16.811Z,8.03
2018-11-06T08:23:45.255Z,8.11
2018-11-06T08:26:13.686Z,8.20
2018-11-06T08:28:42.166Z,8.26
2018-11-06T08:31:10.816Z,8.38
2018-11-06T08:33:39.026Z,8.53
2018-11-06T08:36:07.477Z,8.63
2018-11-06T08:38:35.892Z,8.77
2018-11-06T08:41:04.341Z,8.85
2018-11-06T08:43:32.759Z,8.99
2018-11-06T08:46:01.206Z,9.12
2018-11-06T08:48:29.669Z,9.16
2018-11-06T08:50:58.137Z,9.32
2018-11-06T08:53:26.558Z,9.47
2018-11-06T08:55:55.000Z,9.58
2018-11-06T08:58:23.444Z,9.75
2018-11-06T09:00:51.880Z,9.89
2018-11-06T09:03:20.338Z,9.95
2018-11-06T09:05:48.788Z,10.00
2018-11-06T09:08:17.236Z,10.08
2018-11-06T09:10:45.661Z,10.18
2018-11-06T09:13:14.120Z,10.20
2018-11-06T09:15:42.557Z,10.23
2018-11-06T09:18:11.010Z,10.35
2018-11-06T09:20:39.434Z,10.44
2018-11-06T09:23:07.887Z,10.56
2018-11-06T09:25:36.317Z,10.55
2018-11-06T09:28:04.764Z,10.51
2018-11-06T09:30:33.187Z,10.60
2018-11-06T09:33:01.649Z,10.69
2018-11-06T09:35:30.118Z,10.82
2018-11-06T09:37:58.559Z,10.83
2018-11-06T09:40:26.974Z,10.83
2018-11-06T09:42:55.430Z,10.89
2018-11-06T09:45:23.904Z,11.05
2018-11-06T09:47:52.334Z,11.19
2018-11-06T09:50:20.766Z,11.26
2018-11-06T09:52:49.204Z,11.21
2018-11-06T09:55:18.368Z,11.30
2018-11-06T09:57:47.287Z,11.42
2018-11-06T10:00:17.210Z,11.54
2018-11-06T10:02:45.522Z,11.64
2018-11-06T10:05:14.512Z,11.57
2018-11-06T10:07:43.032Z,11.59
2018-11-06T10:10:13.462Z,11.60
2018-11-06T10:12:42.269Z,11.70
2018-11-06T10:15:12.767Z,11.66
2018-11-06T10:17:42.165Z,11.65
2018-11-06T10:20:11.576Z,11.72
2018-11-06T10:22:40.063Z,11.75
2018-11-06T10:25:08.919Z,11.88
2018-11-06T10:27:37.870Z,11.90
2018-11-06T10:30:09.662Z,11.93
2018-11-06T10:32:38.179Z,12.04
2018-11-06T10:35:07.226Z,12.17
2018-11-06T10:37:35.640Z,12.27
2018-11-06T10:40:04.475Z,12.28
2018-11-06T10:42:32.901Z,12.31
2018-11-06T10:45:01.329Z,12.30
2018-11-06T10:47:29.757Z,12.34
2018-11-06T10:49:58.218Z,12.34
2018-11-06T10:52:26.617Z,12.38
2018-11-06T10:54:55.061Z,12.42
2018-11-06T10:57:23.462Z,12.47
2018-11-06T10:59:51.884Z,12.51
2018-11-06T11:02:22.144Z,12.51
2018-11-06T11:04:50.589Z,12.59
2018-11-06T11:07:19.004Z,12.58
2018-11-06T11:09:47.453Z,12.64
2018-11-06T11:12:15.866Z,12.75
2018-11-06T11:14:44.316Z,12.75
2018-11-06T11:17:12.738Z,12.76
2018-11-06T11:19:41.178Z,12.86
2018-11-06T11:22:09.625Z,12.92
2018-11-06T11:24:38.062Z,12.90
2018-11-06T11:27:06.861Z,12.87
2018-11-06T11:29:35.313Z,12.95
2018-11-06T11:32:03.763Z,13.01
2018-11-06T11:34:32.200Z,12.99
2018-11-06T11:37:00.590Z,13.12
2018-11-06T11:39:28.996Z,13.09
2018-11-06T11:41:57.436Z,13.20
2018-11-06T11:44:28.901Z,13.31
2018-11-06T11:46:57.358Z,13.32
2018-11-06T11:49:25.842Z,13.42
2018-11-06T11:51:54.277Z,13.56
2018-11-06T11:54:22.689Z,13.67
2018-11-06T11:56:51.131Z,13.75
2018-11-06T11:59:19.543Z,13.81
2018-11-06T12:01:47.987Z,13.67
2018-11-06T12:04:16.418Z,13.73
2018-11-06T12:06:44.876Z,13.80
2018-11-06T12:09:13.294Z,13.81
2018-11-06T12:11:41.751Z,13.65
2018-11-06T12:14:10.174Z,13.70
2018-11-06T12:16:38.625Z,13.64
2018-11-06T12:19:07.090Z,13.56
2018-11-06T12:21:35.554Z,13.58
2018-11-06T12:24:04.093Z,13.61
2018-11-06T12:26:32.487Z,13.61
2018-11-06T12:29:00.910Z,13.67
2018-11-06T12:31:29.353Z,13.71
2018-11-06T12:33:57.785Z,13.67
2018-11-06T12:36:26.251Z,13.62
2018-11-06T12:38:54.675Z,13.61
2018-11-06T12:41:23.129Z,13.57
2018-11-06T12:43:51.550Z,13.53
2018-11-06T12:46:20.000Z,13.49
2018-11-06T12:48:48.434Z,13.43
2018-11-06T12:51:16.867Z,13.41
2018-11-06T12:53:45.264Z,13.38
2018-11-06T12:56:13.724Z,13.34
2018-11-06T12:58:42.174Z,13.30
2018-11-06T13:01:10.589Z,13.28
2018-11-06T13:03:39.026Z,13.24
2018-11-06T13:06:07.444Z,13.28
2018-11-06T13:08:35.885Z,13.32
2018-11-06T13:11:04.292Z,13.39
2018-11-06T13:13:32.715Z,13.45
2018-11-06T13:16:01.623Z,13.49
2018-11-06T13:18:30.180Z,13.54
2018-11-06T13:20:58.589Z,13.50
2018-11-06T13:23:27.018Z,13.50
2018-11-06T13:25:55.510Z,13.47
2018-11-06T13:28:23.910Z,13.44
2018-11-06T13:30:52.432Z,13.41
2018-11-06T13:33:20.765Z,13.34
2018-11-06T13:35:49.183Z,13.29
2018-11-06T13:38:17.620Z,13.23
2018-11-06T13:40:46.058Z,13.16
2018-11-06T13:43:14.626Z,13.05
2018-11-06T13:45:43.116Z,12.93
2018-11-06T13:48:11.428Z,12.85
2018-11-06T13:50:39.844Z,12.77
2018-11-06T13:53:08.283Z,12.73
2018-11-06T13:55:36.725Z,12.65
2018-11-06T13:58:05.205Z,12.59
2018-11-06T14:00:33.642Z,12.53
2018-11-06T14:03:02.073Z,12.52
2018-11-06T14:05:30.482Z,12.53
2018-11-06T14:07:58.928Z,12.51
2018-11-06T14:10:27.346Z,12.49
2018-11-06T14:12:55.765Z,12.43
2018-11-06T14:15:24.213Z,12.37
2018-11-06T14:17:52.632Z,12.33
2018-11-06T14:20:21.075Z,12.30
2018-11-06T14:22:49.522Z,12.25
2018-11-06T14:25:17.961Z,12.19
2018-11-06T14:27:46.383Z,12.12
2018-11-06T14:30:17.125Z,12.01
2018-11-06T14:32:46.000Z,11.88
2018-11-06T14:35:15.538Z,11.71
2018-11-06T14:37:44.531Z,11.54
2018-11-06T14:40:13.774Z,11.41
2018-11-06T14:42:42.630Z,11.30
2018-11-06T14:45:12.514Z,11.20
2018-11-06T14:47:41.255Z,11.05
2018-11-06T14:50:10.434Z,10.90
2018-11-06T14:52:38.912Z,10.74
2018-11-06T14:55:08.813Z,10.60
2018-11-06T14:57:37.292Z,10.48
2018-11-06T15:00:08.639Z,10.35
2018-11-06T15:02:37.074Z,10.24
2018-11-06T15:05:05.667Z,10.17
2018-11-06T15:07:34.101Z,10.01
2018-11-06T15:10:02.552Z,9.84
2018-11-06T15:12:30.971Z,9.70
2018-11-06T15:14:59.646Z,9.54
2018-11-06T15:17:28.073Z,9.49
2018-11-06T15:19:56.546Z,9.44
2018-11-06T15:22:24.980Z,9.34
2018-11-06T15:24:53.430Z,9.28
2018-11-06T15:27:21.908Z,9.21
2018-11-06T15:29:50.321Z,9.14
2018-11-06T15:32:18.796Z,8.98
2018-11-06T15:34:47.228Z,8.86
2018-11-06T15:37:21.007Z,8.81
2018-11-06T15:39:49.751Z,8.71
2018-11-06T15:42:18.098Z,8.68
2018-11-06T15:44:46.599Z,8.61
2018-11-06T15:47:15.039Z,8.57
2018-11-06T15:49:43.449Z,8.62
2018-11-06T15:52:11.923Z,8.59
2018-11-06T15:54:40.421Z,8.52
2018-11-06T15:57:08.863Z,8.47
2018-11-06T15:59:37.307Z,8.41
2018-11-06T16:02:06.620Z,8.37
2018-11-06T16:04:35.129Z,8.19
2018-11-06T16:07:03.587Z,8.04
2018-11-06T16:09:32.031Z,8.01
2018-11-06T16:12:00.493Z,8.04
2018-11-06T16:14:28.945Z,8.03
2018-11-06T16:16:57.379Z,8.19
2018-11-06T16:19:25.880Z,8.44
2018-11-06T16:21:54.335Z,8.51
2018-11-06T16:24:22.777Z,8.43
2018-11-06T16:26:51.221Z,8.21
2018-11-06T16:29:19.679Z,8.05
2018-11-06T16:31:48.120Z,7.89
2018-11-06T16:34:16.557Z,7.73
2018-11-06T16:36:45.023Z,7.56
2018-11-06T16:39:13.498Z,7.45
2018-11-06T16:41:42.375Z,7.36
2018-11-06T16:44:10.781Z,7.31
2018-11-06T16:46:39.221Z,7.26
2018-11-06T16:49:07.649Z,7.19
2018-11-06T16:51:36.394Z,7.07
2018-11-06T16:54:04.875Z,6.97
2018-11-06T16:56:33.300Z,6.96
2018-11-06T16:59:01.755Z,7.00
2018-11-06T17:01:30.261Z,7.17
2018-11-06T17:03:58.688Z,7.18
2018-11-06T17:06:32.232Z,7.20
2018-11-06T17:09:00.681Z,7.19
2018-11-06T17:11:29.103Z,7.31
2018-11-06T17:13:57.545Z,7.45
2018-11-06T17:16:25.975Z,7.58
2018-11-06T17:18:54.435Z,7.66
2018-11-06T17:21:22.865Z,7.72
2018-11-06T17:23:51.308Z,7.57
2018-11-06T17:26:19.726Z,7.33
2018-11-06T17:28:48.173Z,7.17
2018-11-06T17:31:16.630Z,7.05
2018-11-06T17:33:45.075Z,6.95
2018-11-06T17:36:13.511Z,6.81
2018-11-06T17:38:41.978Z,6.66
2018-11-06T17:41:10.493Z,6.57
2018-11-06T17:43:38.936Z,6.48
2018-11-06T17:46:07.372Z,6.40
2018-11-06T17:48:36.098Z,6.37
2018-11-06T17:51:04.548Z,6.38
2018-11-06T17:53:32.993Z,6.43
2018-11-06T17:56:01.405Z,6.42
2018-11-06T17:58:29.838Z,6.35
2018-11-06T18:00:58.310Z,6.26
2018-11-06T18:03:26.759Z,6.20
2018-11-06T18:05:55.175Z,6.14
2018-11-06T18:08:23.610Z,6.08
2018-11-06T18:10:52.045Z,6.06
2018-11-06T18:13:20.506Z,6.05
2018-11-06T18:15:48.911Z,6.03
2018-11-06T18:18:17.352Z,6.05
2018-11-06T18:20:45.771Z,6.05
2018-11-06T18:23:14.219Z,6.02
2018-11-06T18:25:42.793Z,5.95
2018-11-06T18:28:11.101Z,5.89
2018-11-06T18:30:39.527Z,5.83
2018-11-06T18:33:08.012Z,5.72
2018-11-06T18:35:36.440Z,5.65
2018-11-06T18:38:04.927Z,5.59
2018-11-06T18:40:33.354Z,5.58
2018-11-06T18:43:01.794Z,5.66
2018-11-06T18:45:30.206Z,5.70
2018-11-06T18:47:58.657Z,5.69
2018-11-06T18:50:27.064Z,5.81
2018-11-06T18:52:55.518Z,5.97
2018-11-06T18:55:23.970Z,6.08
2018-11-06T18:57:52.444Z,6.08
2018-11-06T19:00:22.036Z,5.97
2018-11-06T19:02:51.511Z,5.94
2018-11-06T19:05:20.777Z,5.85
2018-11-06T19:07:49.296Z,5.77
2018-11-06T19:10:18.064Z,5.69
2018-11-06T19:12:46.556Z,5.52
2018-11-06T19:15:17.228Z,5.38
2018-11-06T19:17:46.396Z,5.40
2018-11-06T19:20:15.348Z,5.58
2018-11-06T19:22:43.808Z,5.68
2018-11-06T19:25:13.058Z,5.76
2018-11-06T19:27:41.796Z,5.77
2018-11-06T19:30:15.073Z,5.65
2018-11-06T19:32:43.508Z,5.54
2018-11-06T19:35:11.970Z,5.48
2018-11-06T19:37:40.852Z,5.48
2018-11-06T19:40:11.127Z,5.94
2018-11-06T19:42:40.310Z,6.07
2018-11-06T19:45:09.586Z,6.04
2018-11-06T19:47:38.069Z,5.95
2018-11-06T19:50:08.285Z,5.89
2018-11-06T19:52:36.639Z,5.75
2018-11-06T19:55:05.905Z,5.59
2018-11-06T19:57:34.353Z,5.40
2018-11-06T20:00:02.895Z,5.33
2018-11-06T20:02:31.319Z,5.23
2018-11-06T20:04:59.796Z,5.15
2018-11-06T20:07:28.214Z,5.01
2018-11-06T20:09:56.654Z,5.10
2018-11-06T20:12:25.175Z,5.15
2018-11-06T20:14:53.596Z,5.23
2018-11-06T20:17:22.105Z,5.31
2018-11-06T20:19:50.487Z,5.29
2018-11-06T20:22:19.020Z,5.24
2018-11-06T20:24:47.536Z,5.27
2018-11-06T20:27:15.986Z,5.21
2018-11-06T20:29:44.499Z,5.11
2018-11-06T20:32:12.898Z,5.17
2018-11-06T20:34:41.360Z,5.18
2018-11-06T20:37:09.805Z,5.14
2018-11-06T20:39:38.312Z,5.16
2018-11-06T20:42:06.724Z,5.14
2018-11-06T20:44:35.191Z,4.93
2018-11-06T20:47:03.618Z,4.78
2018-11-06T20:49:32.053Z,4.74
2018-11-06T20:52:00.533Z,4.69
2018-11-06T20:54:28.981Z,4.63
2018-11-06T20:56:57.422Z,4.57
2018-11-06T20:59:25.861Z,4.64
2018-11-06T21:01:54.298Z,4.65
2018-11-06T21:04:22.806Z,4.68
2018-11-06T21:06:51.266Z,4.73
2018-11-06T21:09:19.716Z,4.88
2018-11-06T21:11:48.184Z,4.91
2018-11-06T21:14:16.620Z,4.81
2018-11-06T21:16:45.062Z,4.75
2018-11-06T21:19:13.475Z,4.79
2018-11-06T21:21:41.961Z,4.97
2018-11-06T21:24:10.378Z,5.02
2018-11-06T21:26:38.894Z,5.04
2018-11-06T21:29:07.275Z,5.05
2018-11-06T21:31:35.743Z,5.10
2018-11-06T21:34:04.174Z,5.12
2018-11-06T21:36:32.638Z,5.01
2018-11-06T21:39:01.113Z,4.98
2018-11-06T21:41:29.540Z,4.62
2018-11-06T21:43:57.983Z,4.49
2018-11-06T21:46:26.445Z,4.31
2018-11-06T21:48:54.880Z,4.30
2018-11-06T21:51:23.320Z,4.23
2018-11-06T21:53:51.751Z,4.15
2018-11-06T21:56:20.211Z,4.06
2018-11-06T21:58:48.716Z,4.04
2018-11-06T22:01:17.173Z,4.02
2018-11-06T22:03:45.597Z,4.02
2018-11-06T22:06:14.044Z,3.99
2018-11-06T22:08:42.473Z,4.01
2018-11-06T22:11:10.924Z,4.05
2018-11-06T22:13:39.333Z,4.16
2018-11-06T22:16:07.800Z,4.42
2018-11-06T22:18:36.228Z,4.47
2018-11-06T22:21:04.835Z,4.34
2018-11-06T22:23:33.271Z,4.22
2018-11-06T22:26:01.717Z,4.08
2018-11-06T22:28:30.159Z,3.95
2018-11-06T22:30:58.609Z,3.84
2018-11-06T22:33:27.039Z,3.79
2018-11-06T22:35:55.483Z,3.76
2018-11-06T22:38:23.896Z,3.79
2018-11-06T22:40:52.362Z,3.83
2018-11-06T22:43:20.798Z,4.02
2018-11-06T22:45:49.267Z,4.00
2018-11-06T22:48:17.672Z,4.03
2018-11-06T22:50:46.137Z,4.01
2018-11-06T22:53:14.629Z,3.95
2018-11-06T22:55:43.007Z,3.94
2018-11-06T22:58:11.448Z,3.94
2018-11-06T23:00:45.277Z,3.95
2018-11-06T23:03:15.216Z,4.10
2018-11-06T23:05:43.693Z,4.17
2018-11-06T23:08:17.289Z,4.16
2018-11-06T23:10:45.771Z,4.05
2018-11-06T23:13:14.191Z,3.93
2018-11-06T23:15:42.624Z,4.01
2018-11-06T23:18:11.082Z,4.05
2018-11-06T23:20:39.583Z,4.14
2018-11-06T23:23:08.006Z,4.33
2018-11-06T23:25:36.445Z,4.34
2018-11-06T23:28:05.162Z,4.18
2018-11-06T23:30:33.606Z,3.96
2018-11-06T23:33:02.050Z,3.87
2018-11-06T23:35:30.531Z,3.89
2018-11-06T23:37:58.997Z,4.10
2018-11-06T23:40:27.384Z,4.25
2018-11-06T23:42:55.837Z,4.26
2018-11-06T23:45:24.278Z,4.09
2018-11-06T23:47:52.741Z,3.92
2018-11-06T23:50:21.172Z,3.86
2018-11-06T23:52:49.606Z,3.94
2018-11-06T23:55:18.039Z,3.92
2018-11-06T23:57:46.496Z,3.83
